Weather History for EBAW - February, 2014

Change the Weather History Date:

Monday, February 3, 2014

  Actual Average Record
Temperature  
Mean Temperature 38 °F -  
Max Temperature 47 °F 45 °F 60 °F (2002)
Min Temperature 28 °F 34 °F 14 °F (2012)
Degree Days  
Heating Degree Days 28    
Moisture  
Dew Point 33 °F    
Average Humidity 81    
Maximum Humidity 100    
Minimum Humidity 49    
Precipitation  
Precipitation 0.00 in - - ()
Sea Level Pressure  
Sea Level Pressure 29.83 in    
Wind  
Wind Speed 6 mph ()    
Max Wind Speed 12 mph    
Max Gust Speed -    
Visibility 7.9 miles    
Events Fog    
Averages and records for this station are not official NWS values.
T = Trace of Precipitation, MM = Missing Value Source: Averaged Metar Reports

Daily Weather History Graph

Daily Weather History Graph

Search for Another Location

Airport or City:

Trip Planner

Search our weather history database for the weather conditions in past years. The results will help you decide how hot, cold, wet, or windy it might be!

Date:

Astronomy

Feb. 03, 2014 Rise Set
Actual Time 8:16 AM CET 5:36 PM CET
Civil Twilight 7:40 AM CET 6:11 PM CET
Nautical Twilight 7:01 AM CET 6:51 PM CET
Astronomical Twilight 6:22 AM CET 7:30 PM CET
Moon 9:36 AM CET (2/3) 10:46 PM CET (2/3)
Length of Visible Light 10h 30m
Length of Day
9h 19m
Waxing Crescent, 17% of the Moon is Illuminated
Feb 3
Waxing Crescent
Feb 6
First Quarter
Feb 15
Full
Feb 22
Last Quarter
Mar 1
New

Hourly Weather History & Observations

Time (CET) Temp. Windchill Dew Point Humidity Pressure Visibility Wind Dir Wind Speed Gust Speed Precip Events Conditions
12:00 AM 37 °F - 35 °F 87% 30.00 in 9 mi South 4.5 mph - -  
12:20 AM 33.8 °F 29.6 °F 30.2 °F 87% 29.98 in - SSE 4.6 mph - N/A   Clear
12:50 AM 33.8 °F 30.8 °F 32.0 °F 93% 30.01 in - South 3.5 mph - N/A   Clear
1:00 AM 33 °F - 32 °F 92% 30.01 in 7 mi South 2.2 mph - -  
1:20 AM 33.8 °F 30.8 °F 32.0 °F 93% 30.01 in 5.6 mi SE 3.5 mph - N/A   Unknown
1:50 AM 33.8 °F 30.8 °F 32.0 °F 93% 29.98 in 5.0 mi SSE 3.5 mph - N/A   Unknown
2:00 AM 34 °F - 33 °F 93% 30.00 in - SSE 4.5 mph - -  
2:20 AM 32.0 °F 26.4 °F 30.2 °F 93% 29.98 in 5.0 mi ESE 5.8 mph - N/A   Unknown
2:50 AM 32.0 °F 27.5 °F 30.2 °F 93% 29.98 in 5.0 mi ESE 4.6 mph - N/A   Unknown
3:00 AM 31 °F - 30 °F 94% 29.99 in - ESE 4.5 mph - -  
3:20 AM 32.0 °F 27.5 °F 30.2 °F 93% 29.98 in - ESE 4.6 mph - N/A   Clear
3:50 AM 32.0 °F 28.7 °F 30.2 °F 93% 29.98 in - SE 3.5 mph - N/A   Unknown
4:00 AM 31 °F - 30 °F 94% 29.98 in - SE 4.5 mph - -  
4:20 AM 32.0 °F 28.7 °F 32.0 °F 100% 29.95 in 1.4 mi SE 3.5 mph - N/A   Unknown
4:50 AM 30.2 °F 26.7 °F 30.2 °F 100% 29.95 in - ESE 3.5 mph - N/A Fog Light Freezing Fog
5:00 AM 30 °F - 29 °F 97% 29.97 in 0 mi ESE 4.5 mph - - Fog Fog
5:20 AM 32.0 °F 27.5 °F 30.2 °F 93% 29.95 in 3.1 mi ESE 4.6 mph - N/A   Unknown
5:50 AM 30.2 °F 25.4 °F 28.4 °F 93% 29.95 in 0.5 mi ESE 4.6 mph - N/A   Unknown
6:00 AM 30 °F - 29 °F 92% 29.96 in 4 mi ESE 4.5 mph - - Fog Fog
6:20 AM 30.2 °F 24.3 °F 30.2 °F 100% 29.95 in - SE 5.8 mph - N/A   Clear
6:50 AM 28.4 °F 21.2 °F 26.6 °F 93% 29.95 in - ESE 6.9 mph - N/A   Clear
7:00 AM 29 °F - 27 °F 91% 29.95 in 6 mi ESE 6.7 mph - -  
7:20 AM 30.2 °F 24.3 °F 28.4 °F 93% 29.95 in 5.6 mi ESE 5.8 mph - N/A   Unknown
7:50 AM 28.4 °F 22.2 °F 26.6 °F 93% 29.92 in 5.6 mi ESE 5.8 mph - N/A   Unknown
8:00 AM 28 °F - 27 °F 93% 29.94 in 6 mi ESE 4.5 mph - -  
8:20 AM 28.4 °F 23.3 °F 26.6 °F 93% 29.92 in 5.6 mi ESE 4.6 mph - N/A   Unknown
8:50 AM 28.4 °F 23.3 °F 28.4 °F 100% 29.92 in 5.6 mi ESE 4.6 mph - N/A   Unknown
9:00 AM 29 °F - 28 °F 93% 29.93 in 6 mi ESE 4.5 mph - -  
9:20 AM 30.2 °F 25.4 °F 28.4 °F 93% 29.92 in 5.6 mi ESE 4.6 mph - N/A   Unknown
9:50 AM 33.8 °F 27.7 °F 32.0 °F 93% 29.92 in - ESE 6.9 mph - N/A   Clear
10:00 AM 33 °F - 32 °F 92% 29.92 in 7 mi ESE 6.7 mph - -  
10:20 AM 35.6 °F 29.9 °F 33.8 °F 93% 29.89 in - ESE 6.9 mph - N/A   Clear
10:50 AM 39.2 °F 34.2 °F 33.8 °F 81% 29.89 in - ESE 6.9 mph - N/A   Clear
11:00 AM 38 °F - 34 °F 81% 29.90 in 7 mi ESE 6.7 mph - -  
11:20 AM 41.0 °F 36.4 °F 35.6 °F 81% 29.86 in - ESE 6.9 mph - N/A   Clear
11:50 AM 42.8 °F 38.0 °F 35.6 °F 76% 29.86 in - ESE 8.1 mph - N/A   Clear
12:00 PM 42 °F - 36 °F 70% 29.87 in 7 mi ESE 6.7 mph - -  
12:20 PM 44.6 °F 39.2 °F 35.6 °F 71% 29.83 in - SE 10.4 mph - N/A   Clear
12:50 PM 44.6 °F 39.2 °F 33.8 °F 66% 29.83 in - ESE 10.4 mph - N/A   Clear
1:00 PM 45 °F - 34 °F 56% 29.83 in 11 mi ESE 11.2 mph - -  
1:20 PM 46.4 °F 41.5 °F 33.8 °F 62% 29.80 in - ESE 10.4 mph - N/A   Clear
1:50 PM 46.4 °F 41.9 °F 33.8 °F 62% 29.77 in - SE 9.2 mph - N/A   Clear
2:00 PM 46 °F - 34 °F 51% 29.79 in 16 mi SE 8.9 mph - -  
2:20 PM 46.4 °F 41.9 °F 33.8 °F 62% 29.77 in - ESE 9.2 mph - N/A   Clear
2:50 PM 46.4 °F 41.9 °F 33.8 °F 62% 29.74 in - SE 9.2 mph - N/A   Clear
3:00 PM 47 °F - 34 °F 49% 29.76 in 19 mi SE 8.9 mph - -   Clear
3:20 PM 46.4 °F 42.4 °F 33.8 °F 62% 29.74 in - ESE 8.1 mph - N/A   Clear
3:50 PM 46.4 °F 41.9 °F 35.6 °F 66% 29.71 in - ESE 9.2 mph - N/A   Clear
4:00 PM 47 °F - 35 °F 52% 29.73 in 19 mi ESE 8.9 mph - -   Clear
4:20 PM 46.4 °F 41.9 °F 33.8 °F 62% 29.71 in - East 9.2 mph - N/A   Clear
4:50 PM 44.6 °F 40.2 °F 33.8 °F 66% 29.71 in - East 8.1 mph - N/A   Clear
5:00 PM 44 °F - 35 °F 59% 29.72 in 19 mi East 8.9 mph - -   Clear
5:20 PM 42.8 °F 38.0 °F 35.6 °F 76% 29.68 in - East 8.1 mph - N/A   Clear
5:50 PM 41.0 °F 34.3 °F 33.8 °F 76% 29.68 in - East 11.5 mph - N/A   Clear
6:00 PM 41 °F - 35 °F 71% 29.69 in 19 mi East 11.2 mph - -  
6:20 PM 39.2 °F 32.5 °F 35.6 °F 87% 29.68 in - East 10.4 mph - N/A   Clear
6:50 PM 37.4 °F 31.4 °F 33.8 °F 87% 29.68 in - East 8.1 mph - N/A   Clear
7:00 PM 38 °F - 34 °F 81% 29.70 in 8 mi East 8.9 mph - -  
7:20 PM 39.2 °F 33.0 °F 35.6 °F 87% 29.68 in - East 9.2 mph - N/A   Clear
7:50 PM 39.2 °F 34.2 °F 35.6 °F 87% 29.68 in 6.2 mi ESE 6.9 mph - N/A   Mostly Cloudy
8:00 PM 40 °F - 35 °F 76% 29.69 in 8 mi ESE 6.7 mph - -   Mostly Cloudy
8:20 PM 41.0 °F 35.8 °F 35.6 °F 81% 29.65 in 6.2 mi ESE 8.1 mph - N/A   Mostly Cloudy
8:50 PM 41.0 °F 35.2 °F 35.6 °F 81% 29.65 in 6.2 mi SE 9.2 mph - N/A   Mostly Cloudy
9:00 PM 42 °F - 35 °F 69% 29.67 in 8 mi SE 8.9 mph - -   Overcast
9:20 PM 42.8 °F 38.0 °F 35.6 °F 76% 29.65 in 6.2 mi SE 8.1 mph - N/A   Mostly Cloudy
9:50 PM 42.8 °F 37.5 °F 33.8 °F 70% 29.65 in 6.2 mi SSE 9.2 mph - N/A   Mostly Cloudy
10:00 PM 42 °F - 35 °F 67% 29.68 in 16 mi SSE 8.9 mph - -   Overcast
10:20 PM 42.8 °F 38.0 °F 33.8 °F 70% 29.65 in 6.2 mi SE 8.1 mph - N/A   Mostly Cloudy
10:50 PM 41.0 °F 35.8 °F 35.6 °F 81% 29.65 in 6.2 mi SE 8.1 mph - N/A   Mostly Cloudy
11:00 PM 42 °F - 35 °F 69% 29.66 in 16 mi SE 8.9 mph - -   Overcast
11:20 PM 39.2 °F 33.6 °F 33.8 °F 81% 29.62 in - SE 8.1 mph - N/A   Clear
11:50 PM 35.6 °F 29.2 °F 32.0 °F 87% 29.62 in - SE 8.1 mph - N/A   Clear